Terminal Aerodrome Forecast
Issued by NWS

Home | Current Version | Previous Version | Text Only | Print | Product List | Glossary On
Versions: 1 2 3 4 5 6 7 8 9 10 11 12 13 14 15 16 17 18 19 20 21 22 23
000
FTUS45 KRIW 061123
TAFPNA
TAF
KPNA 061123Z 0612/0712 15006KT P6SM VCSH SCT030 BKN060
     FM061800 14013G20KT P6SM VCTS SCT025CB BKN050
     FM070200 09008KT 6SM -RA SCT020 BKN035
     FM070800 30006KT 4SM -RA SCT010 BKN020
      AMD LTD TO CLD VIS AND WIND=

USA.gov is the U.S. government's official web portal to all federal, state and local government web resources and services.